Skip Navigation LinksHome page > Weather > Current weather Skip Navigation Links

Current Weather

Sarh, Chad

For information only: do not use for flight planning or navigation.
Latest weather
Observation time Sunday, July 24, 2016 3:00 AM WAT
Local time Sunday, July 24, 2016 3:50 AM WAT
Flight conditions Visual Meteorological Conditions
Winds
Wind speed calm
Visibility 6.2 mi.
Sky condition
Ceiling unlimited
Temperature 73°F
Dewpoint 72°F
Altimeter 29.94 in.Hg
Derived measurements
Relative humidity 94%
Density altitude 1625 ft.
METAR FTTA 240200Z 00000KT 9999 23/22 Q1014

Settings

Location code

InnerDrive.Weather 4.0.5722.1 Release CLR 4.0.30319.34209
Copyright ©2015 Inner Drive Technology. All rights reserved. Portions Copyright ©1986-2015 David Braverman.

Find weather

Site navigation


Skip Navigation Links

Place info

Page info

PayPal - The safer, easier way to pay online!

Return home.

Copyright ©2016 Inner Drive Technology. Purveyors of fine, hand-crafted computer software. Page printed 2016-07-24T02:50:12 UTC.